Huvudsida
METAR-TAF:

METAR-TAF

Flygplatser :

Supadio Airport

Pontianak, Indonesien

latitud: 00-09S, longitud: 109-24E, höjd: 3 m

Aktuellt väderrapport

Denna rapport gjordes för 22 timmar och 18 minuter sedan, klockan 10:30 UTC
Vind 9 kt från nord/nordost
Temperatur 25°C
Fuktighet 94%
Tryck 1011 hPa
Sikt: 1500 m
Få moln på en höjd av 1000 ft, Cumulonimbus.
Brutna moln på en höjd av 1100 ft
åska, regn

METAR: WIOO 201030Z 03009KT 1500 TSRA FEW010CB BKN011 25/24 Q1011

Tid: 15:48 (08:48 UTC)


TAF: saknas

Aktuella väderrapporter och prognoser från 4000 flygplatser (METAR- och TAF-rapporter).

De tillgängliga stationerna syns som gula och röda prickar på kartan.

För musen över prickarna för att se namnen på stationerna.

Klicka sedan för att få väderrapporter och prognoser.

För att ändra kartan: Klicka på de gröna knapparna med ett svart kors på för att zooma in; den gröna knappen med ett streck på för att zooma ut; eller på de gröna pilarna för angränsande kartor.


METAR-TAF: